createdAt,value
2019-03-27T00:04:34.682Z,33.97
2019-03-27T00:07:06.929Z,26.03
2019-03-27T00:09:36.779Z,24.73
2019-03-27T00:12:07.005Z,25.40
2019-03-27T00:14:37.387Z,32.77
2019-03-27T00:17:07.358Z,23.90
2019-03-27T00:19:37.469Z,25.07
2019-03-27T00:22:07.179Z,24.63
2019-03-27T00:24:36.670Z,23.40
2019-03-27T00:27:06.172Z,26.57
2019-03-27T00:29:40.296Z,27.63
2019-03-27T00:32:09.574Z,30.20
2019-03-27T00:34:39.212Z,26.03
2019-03-27T00:37:12.309Z,30.60
2019-03-27T00:39:42.354Z,24.90
2019-03-27T00:42:12.990Z,26.07
2019-03-27T00:44:44.027Z,32.73
2019-03-27T00:47:13.897Z,36.73
2019-03-27T00:49:43.444Z,34.20
2019-03-27T00:52:15.103Z,33.00
2019-03-27T00:54:48.235Z,37.93
2019-03-27T00:57:18.309Z,30.00
2019-03-27T00:59:48.052Z,42.17
2019-03-27T01:02:17.716Z,29.80
2019-03-27T01:04:47.210Z,35.90
2019-03-27T01:07:16.709Z,46.37
2019-03-27T01:09:45.998Z,28.50
2019-03-27T01:12:15.311Z,39.80
2019-03-27T01:14:45.136Z,37.87
2019-03-27T01:17:14.421Z,31.63
2019-03-27T01:19:43.985Z,42.73
2019-03-27T01:22:13.549Z,30.43
2019-03-27T01:24:45.917Z,42.40
2019-03-27T01:27:15.410Z,41.40
2019-03-27T01:29:45.238Z,41.00
2019-03-27T01:32:15.831Z,37.47
2019-03-27T01:34:45.354Z,30.30
2019-03-27T01:37:14.582Z,42.43
2019-03-27T01:39:44.190Z,40.97
2019-03-27T01:42:13.683Z,30.63
2019-03-27T01:44:42.876Z,32.77
2019-03-27T01:47:12.485Z,47.97
2019-03-27T01:49:41.829Z,38.77
2019-03-27T01:52:11.412Z,37.07
2019-03-27T01:54:40.797Z,37.60
2019-03-27T01:57:10.310Z,37.00
2019-03-27T01:59:39.626Z,35.73
2019-03-27T02:02:09.158Z,41.53
2019-03-27T02:04:38.382Z,35.53
2019-03-27T02:07:07.867Z,38.10
2019-03-27T02:09:37.676Z,35.73
2019-03-27T02:12:07.504Z,40.67
2019-03-27T02:14:37.253Z,37.47
2019-03-27T02:17:06.709Z,31.07
2019-03-27T02:19:36.785Z,34.40
2019-03-27T02:22:07.607Z,40.37
2019-03-27T02:24:38.062Z,36.30
2019-03-27T02:27:07.632Z,37.73
2019-03-27T02:29:37.296Z,45.33
2019-03-27T02:32:06.927Z,40.07
2019-03-27T02:34:36.758Z,47.03
2019-03-27T02:37:06.644Z,44.63
2019-03-27T02:39:36.021Z,38.50
2019-03-27T02:42:05.258Z,50.13
2019-03-27T02:44:34.470Z,40.67
2019-03-27T02:47:04.633Z,44.43
2019-03-27T02:49:34.575Z,40.57
2019-03-27T02:52:04.270Z,51.87
2019-03-27T02:54:33.601Z,43.30
2019-03-27T02:57:03.659Z,42.03
2019-03-27T02:59:33.205Z,44.33
2019-03-27T03:02:05.399Z,39.37
2019-03-27T03:04:35.209Z,38.20
2019-03-27T03:07:04.752Z,48.73
2019-03-27T03:09:34.029Z,51.13
2019-03-27T03:12:11.124Z,46.10
2019-03-27T03:14:41.223Z,63.30
2019-03-27T03:17:10.649Z,47.50
2019-03-27T03:19:40.164Z,46.23
2019-03-27T03:22:09.430Z,54.67
2019-03-27T03:24:38.923Z,50.50
2019-03-27T03:27:08.250Z,50.10
2019-03-27T03:29:37.482Z,39.57
2019-03-27T03:32:07.026Z,55.33
2019-03-27T03:34:36.677Z,55.77
2019-03-27T03:37:06.555Z,56.10
2019-03-27T03:39:35.769Z,54.60
2019-03-27T03:42:05.010Z,45.07
2019-03-27T03:44:34.503Z,50.77
2019-03-27T03:47:04.087Z,50.60
2019-03-27T03:49:34.238Z,56.10
2019-03-27T03:52:04.123Z,49.13
2019-03-27T03:54:33.382Z,53.43
2019-03-27T03:57:03.480Z,49.50
2019-03-27T03:59:33.941Z,44.90
2019-03-27T04:02:03.793Z,48.10
2019-03-27T04:04:33.843Z,60.03
2019-03-27T04:07:03.789Z,59.60
2019-03-27T04:09:32.992Z,58.37
2019-03-27T04:12:02.735Z,56.47
2019-03-27T04:14:31.928Z,52.60
2019-03-27T04:17:16.127Z,49.90
2019-03-27T04:19:33.264Z,50.70
2019-03-27T04:22:03.532Z,52.30
2019-03-27T04:24:33.084Z,55.40
2019-03-27T04:27:02.611Z,53.10
2019-03-27T04:29:31.873Z,56.97
2019-03-27T04:32:01.071Z,67.27
2019-03-27T04:34:30.293Z,55.83
2019-03-27T04:37:00.477Z,61.30
2019-03-27T04:39:30.209Z,63.40
2019-03-27T04:41:59.702Z,57.73
2019-03-27T04:44:29.130Z,60.67
2019-03-27T04:46:58.673Z,46.73
2019-03-27T04:49:27.868Z,63.20
2019-03-27T04:51:59.840Z,59.30
2019-03-27T04:54:29.699Z,61.63
2019-03-27T04:56:59.583Z,66.87
2019-03-27T04:59:28.810Z,67.07
2019-03-27T05:01:58.654Z,63.43
2019-03-27T05:04:29.243Z,72.33
2019-03-27T05:06:58.519Z,68.17
2019-03-27T05:09:28.861Z,63.00
2019-03-27T05:11:58.185Z,62.87
2019-03-27T05:14:27.507Z,66.53
2019-03-27T05:16:57.593Z,67.97
2019-03-27T05:19:27.513Z,68.00
2019-03-27T05:21:56.989Z,78.07
2019-03-27T05:24:27.112Z,68.67
2019-03-27T05:26:56.351Z,57.70
2019-03-27T05:29:26.653Z,83.13
2019-03-27T05:31:56.444Z,62.87
2019-03-27T05:34:29.507Z,64.50
2019-03-27T05:36:58.654Z,67.40
2019-03-27T05:39:28.310Z,61.27
2019-03-27T05:41:57.593Z,74.20
2019-03-27T05:44:28.354Z,62.80
2019-03-27T05:46:58.202Z,82.90
2019-03-27T05:49:27.855Z,69.13
2019-03-27T05:51:58.165Z,70.80
2019-03-27T05:54:28.770Z,71.37
2019-03-27T05:56:58.689Z,66.77
2019-03-27T05:59:28.038Z,78.93
2019-03-27T06:01:58.273Z,77.63
2019-03-27T06:04:28.414Z,70.13
2019-03-27T06:06:57.809Z,64.13
2019-03-27T06:09:28.181Z,71.67
2019-03-27T06:11:58.257Z,81.70
2019-03-27T06:14:27.912Z,72.10
2019-03-27T06:16:58.880Z,66.37
2019-03-27T06:19:28.199Z,67.93
2019-03-27T06:22:16.579Z,72.63
2019-03-27T06:24:47.664Z,73.07
2019-03-27T06:27:20.153Z,73.50
2019-03-27T06:29:49.575Z,64.87
2019-03-27T06:32:19.168Z,69.27
2019-03-27T06:34:51.634Z,74.20
2019-03-27T06:43:12.022Z,79.07
2019-03-27T06:45:43.400Z,78.73
2019-03-27T06:48:25.715Z,66.30
2019-03-27T06:50:46.084Z,84.10
2019-03-27T06:53:15.467Z,84.63
2019-03-27T06:55:44.845Z,73.93
2019-03-27T06:58:14.526Z,71.67
2019-03-27T07:00:52.782Z,68.83
2019-03-27T07:03:34.238Z,80.33
2019-03-27T07:06:09.317Z,75.67
2019-03-27T07:08:39.179Z,70.67
2019-03-27T07:11:11.551Z,82.77
2019-03-27T07:13:41.006Z,98.60
2019-03-27T07:16:10.542Z,72.73
2019-03-27T07:18:40.745Z,81.73
2019-03-27T07:21:10.717Z,65.30
2019-03-27T07:23:40.515Z,103.50
2019-03-27T07:26:11.045Z,68.67
2019-03-27T07:28:42.117Z,76.77
2019-03-27T07:31:17.835Z,77.27
2019-03-27T07:33:49.327Z,72.63
2019-03-27T07:36:22.942Z,57.33
2019-03-27T07:39:11.303Z,67.27
2019-03-27T07:41:55.797Z,75.03
2019-03-27T07:44:27.148Z,69.03
2019-03-27T07:46:57.422Z,70.70
2019-03-27T07:49:28.794Z,66.27
2019-03-27T07:51:58.585Z,77.10
2019-03-27T07:54:30.094Z,70.17
2019-03-27T07:57:00.254Z,63.40
2019-03-27T08:02:13.183Z,72.10
2019-03-27T08:04:43.124Z,68.60
2019-03-27T08:07:25.937Z,58.17
2019-03-27T08:09:43.972Z,65.90
2019-03-27T08:12:14.022Z,88.27
2019-03-27T08:14:47.769Z,67.13
2019-03-27T08:17:18.459Z,54.20
2019-03-27T08:19:48.875Z,62.23
2019-03-27T08:22:23.491Z,73.13
2019-03-27T08:24:54.045Z,58.47
2019-03-27T08:27:26.161Z,68.90
2019-03-27T08:29:56.166Z,63.10
2019-03-27T08:32:26.241Z,74.87
2019-03-27T08:34:56.820Z,66.30
2019-03-27T08:37:26.651Z,73.93
2019-03-27T08:39:59.721Z,59.77
2019-03-27T08:42:29.776Z,64.40
2019-03-27T08:47:53.259Z,69.63
2019-03-27T08:50:25.774Z,61.53
2019-03-27T08:52:57.894Z,60.93
2019-03-27T08:55:32.217Z,66.97
2019-03-27T14:00:59.808Z,28.40
2019-03-27T14:03:30.710Z,28.20
2019-03-27T14:06:01.570Z,21.13
2019-03-27T14:08:33.292Z,17.80
2019-03-27T14:11:02.541Z,43.73
2019-03-27T14:13:33.326Z,31.30
2019-03-27T14:16:02.894Z,36.57
2019-03-27T14:18:32.881Z,27.77
2019-03-27T14:21:04.001Z,25.80
2019-03-27T14:23:34.924Z,15.20
2019-03-27T14:26:05.616Z,17.10
2019-03-27T14:28:35.403Z,22.47
2019-03-27T14:31:04.708Z,22.67
2019-03-27T14:33:34.348Z,21.50
2019-03-27T14:36:03.945Z,19.30
2019-03-27T14:38:33.572Z,21.50
2019-03-27T14:41:03.553Z,20.90
2019-03-27T14:43:33.408Z,20.50
2019-03-27T14:46:03.331Z,15.53
2019-03-27T14:48:33.683Z,18.40
2019-03-27T14:51:06.466Z,21.80
2019-03-27T14:53:36.042Z,15.40
2019-03-27T14:56:05.881Z,20.10
2019-03-27T14:58:37.048Z,27.33
2019-03-27T15:01:06.892Z,17.27
2019-03-27T15:03:37.204Z,17.37
2019-03-27T15:06:07.186Z,14.10
2019-03-27T15:08:38.398Z,15.53
2019-03-27T15:11:08.094Z,16.60
2019-03-27T15:13:39.362Z,15.70
2019-03-27T15:16:35.158Z,14.60
2019-03-27T15:19:08.025Z,13.63
2019-03-27T15:21:37.805Z,18.70
2019-03-27T15:24:08.618Z,14.00
2019-03-27T15:26:38.613Z,15.07
2019-03-27T15:29:09.425Z,17.63
2019-03-27T15:31:41.430Z,24.23
2019-03-27T15:34:11.251Z,17.43
2019-03-27T15:36:40.276Z,19.47
2019-03-27T15:39:10.535Z,20.00
2019-03-27T15:41:40.069Z,29.00
2019-03-27T15:44:09.978Z,16.03
2019-03-27T15:46:39.337Z,11.43
2019-03-27T15:49:08.844Z,24.70
2019-03-27T15:51:38.296Z,19.07
2019-03-27T15:54:08.038Z,13.67
2019-03-27T15:56:38.675Z,13.33
2019-03-27T15:59:07.913Z,22.33
2019-03-27T16:01:37.400Z,14.10
2019-03-27T16:04:06.897Z,12.13
2019-03-27T16:06:37.174Z,15.27
2019-03-27T16:09:09.432Z,13.70
2019-03-27T16:11:40.131Z,17.50
2019-03-27T16:14:09.857Z,13.20
2019-03-27T16:16:39.569Z,18.50
2019-03-27T16:19:08.801Z,21.10
2019-03-27T16:21:38.007Z,19.50
2019-03-27T16:24:07.989Z,13.70
2019-03-27T16:26:37.557Z,18.27
2019-03-27T16:29:07.457Z,28.83
2019-03-27T16:31:37.089Z,15.57
2019-03-27T16:34:06.626Z,15.80
2019-03-27T16:36:36.439Z,22.27
2019-03-27T16:39:06.636Z,18.93
2019-03-27T16:41:36.225Z,36.87
2019-03-27T16:44:06.962Z,19.23
2019-03-27T16:46:36.238Z,18.77
2019-03-27T16:49:05.857Z,20.03
2019-03-27T16:51:35.464Z,25.43
2019-03-27T16:54:05.312Z,29.43
2019-03-27T16:56:34.629Z,26.00
2019-03-27T16:59:04.113Z,22.47
2019-03-27T17:01:34.250Z,24.23
2019-03-27T17:04:03.883Z,24.57
2019-03-27T17:06:33.985Z,30.60
2019-03-27T17:09:05.124Z,20.10
2019-03-27T17:11:34.787Z,19.17
2019-03-27T17:14:04.674Z,23.13
2019-03-27T17:16:33.862Z,22.43
2019-03-27T17:19:03.470Z,57.80
2019-03-27T17:21:32.769Z,25.13
2019-03-27T17:24:02.340Z,32.07
2019-03-27T17:26:31.602Z,22.77
2019-03-27T17:29:01.090Z,30.30
2019-03-27T17:31:30.627Z,29.50
2019-03-27T17:34:00.780Z,24.27
2019-03-27T17:36:30.384Z,24.63
2019-03-27T17:39:00.126Z,21.27
2019-03-27T17:41:29.685Z,26.20
2019-03-27T17:43:59.257Z,28.43
2019-03-27T17:46:29.097Z,34.63
2019-03-27T17:48:58.853Z,27.63
2019-03-27T17:51:29.437Z,20.43
2019-03-27T17:53:59.489Z,43.20
2019-03-27T17:56:28.964Z,26.17
2019-03-27T17:58:59.396Z,25.40
2019-03-27T18:01:29.305Z,22.80
2019-03-27T18:04:00.095Z,38.13
2019-03-27T18:06:29.436Z,27.77
2019-03-27T18:08:59.431Z,27.10
2019-03-27T18:11:29.322Z,27.27
2019-03-27T18:13:59.341Z,24.53
2019-03-27T18:16:28.802Z,37.17
2019-03-27T18:18:58.996Z,31.20
2019-03-27T18:21:28.627Z,25.77
2019-03-27T18:23:58.780Z,21.23
2019-03-27T18:26:28.181Z,25.70
2019-03-27T18:28:58.321Z,26.63
2019-03-27T18:31:27.912Z,26.83
2019-03-27T18:33:57.226Z,36.47
2019-03-27T18:36:29.055Z,24.87
2019-03-27T18:38:58.912Z,27.60
2019-03-27T18:41:29.133Z,21.37
2019-03-27T18:43:58.927Z,22.97
2019-03-27T18:46:29.065Z,24.17
2019-03-27T18:48:59.463Z,23.33
2019-03-27T18:51:29.154Z,23.73
2019-03-27T18:54:00.209Z,42.13
2019-03-27T18:56:30.049Z,32.80
2019-03-27T18:58:59.821Z,28.53
2019-03-27T19:01:29.828Z,27.60
2019-03-27T19:03:59.354Z,19.23
2019-03-27T19:06:29.879Z,23.30
2019-03-27T19:08:59.883Z,19.10
2019-03-27T19:11:29.774Z,18.10
2019-03-27T19:13:59.082Z,20.10
2019-03-27T19:16:28.587Z,19.27
2019-03-27T19:18:57.783Z,25.17
2019-03-27T19:21:27.756Z,18.40
2019-03-27T19:23:56.961Z,22.17
2019-03-27T19:26:26.535Z,30.07
2019-03-27T19:28:56.123Z,26.30
2019-03-27T19:31:26.299Z,26.23
2019-03-27T19:33:58.360Z,23.80
2019-03-27T19:36:27.843Z,26.10
2019-03-27T19:38:57.697Z,17.90
2019-03-27T19:41:27.837Z,24.23
2019-03-27T19:43:57.406Z,19.43
2019-03-27T19:46:26.954Z,34.23
2019-03-27T19:48:56.306Z,21.17
2019-03-27T19:51:26.475Z,23.43
2019-03-27T19:53:56.134Z,25.10
2019-03-27T19:56:25.662Z,26.17
2019-03-27T19:58:55.537Z,23.47
2019-03-27T20:01:24.763Z,22.60
2019-03-27T20:03:54.433Z,31.40
2019-03-27T20:06:24.117Z,20.97
2019-03-27T20:08:56.562Z,18.97
2019-03-27T20:11:24.591Z,17.37
2019-03-27T20:13:54.222Z,21.80
2019-03-27T20:16:24.172Z,29.83
2019-03-27T20:18:54.352Z,19.33
2019-03-27T20:21:23.818Z,18.60
2019-03-27T20:23:53.438Z,29.33
2019-03-27T20:26:22.705Z,25.47
2019-03-27T20:28:52.460Z,20.30
